Time;durP1;ratioP1;P1;durP2;ratioP2;P2;SDS_P1;SDS_P2;PMS_P1;PMS_P2;Temp;Humidity;BMP_temperature;BMP_pressure;BME280_temperature;BME280_humidity;BME280_pressure;Samples;Min_cycle;Max_cycle;Signal;HPM_P1;HPM_P2
2023/07/08 00:00:41;;;;;;;5.13;4.07;;;21.90;60.90;;;24.54;42.34;101998.16;5054758;28;20296;-57
2023/07/08 00:03:09;;;;;;;6.27;4.30;;;21.80;60.90;;;24.53;42.43;101993.03;5056201;28;20200;-54
2023/07/08 00:05:38;;;;;;;5.97;3.83;;;21.80;61.10;;;24.51;42.75;101984.38;5055014;28;20190;-62
2023/07/08 00:08:08;;;;;;;6.40;4.07;;;21.80;61.30;;;24.49;42.46;101989.16;5054910;28;20198;-59
2023/07/08 00:10:35;;;;;;;6.00;4.77;;;21.70;61.40;;;24.47;42.42;101986.69;5055237;28;20213;-59
2023/07/08 00:13:02;;;;;;;5.13;4.20;;;21.70;61.50;;;24.46;42.42;101981.56;5054918;28;20606;-59
2023/07/08 00:15:32;;;;;;;4.20;3.57;;;21.70;61.60;;;24.44;42.60;101984.47;5055082;28;20214;-59
2023/07/08 00:17:59;;;;;;;4.93;3.87;;;21.70;61.70;;;24.42;42.55;101980.38;5054784;28;20200;-58
2023/07/08 00:20:32;;;;;;;4.67;4.27;;;21.60;61.50;;;24.41;42.62;101973.38;5054278;28;20209;-59
2023/07/08 00:23:01;;;;;;;4.30;3.60;;;21.60;61.70;;;24.39;42.62;101981.66;5054659;28;20822;-57
2023/07/08 00:25:29;;;;;;;5.73;4.60;;;21.60;61.80;;;24.39;42.64;101975.47;5054646;28;20190;-58
2023/07/08 00:27:56;;;;;;;4.60;3.93;;;21.60;62.00;;;24.39;42.71;101983.56;5054686;28;20194;-59
2023/07/08 00:30:26;;;;;;;5.77;3.70;;;21.60;61.80;;;24.38;42.71;101981.91;5073998;28;20209;-59
2023/07/08 00:32:56;;;;;;;4.00;3.60;;;21.60;62.00;;;24.37;42.72;101981.09;5074366;28;20235;-58
2023/07/08 00:35:30;;;;;;;4.70;3.80;;;21.60;62.00;;;24.37;42.71;101981.09;5074015;28;20226;-56
2023/07/08 00:38:03;;;;;;;4.67;3.50;;;21.60;62.00;;;24.37;42.55;101977.56;5074438;28;20189;-59
2023/07/08 00:40:33;;;;;;;4.20;3.80;;;21.60;61.80;;;24.33;42.69;101976.41;5073955;28;20234;-57
2023/07/08 00:43:05;;;;;;;5.07;3.53;;;21.60;61.90;;;24.31;42.93;101973.97;5073839;28;20276;-59
2023/07/08 00:45:41;;;;;;;7.87;4.43;;;21.50;61.80;;;24.28;42.57;101978.97;5074026;28;20195;-59
2023/07/08 00:48:34;;;;;;;4.83;3.97;;;21.50;62.00;;;24.24;43.00;101973.25;5073848;28;20266;-58
2023/07/08 00:51:01;;;;;;;7.30;4.30;;;21.50;62.20;;;24.25;42.98;101974.09;5067597;28;20196;-58
2023/07/08 00:53:31;;;;;;;4.93;4.27;;;21.50;62.20;;;24.25;42.91;101974.88;5054184;28;20198;-57
2023/07/08 00:56:03;;;;;;;4.70;3.87;;;21.50;62.20;;;24.22;42.70;101976.16;5054102;28;20255;-56
2023/07/08 00:58:37;;;;;;;6.90;4.27;;;21.40;62.10;;;24.19;43.02;101971.28;5053675;28;20193;-58
2023/07/08 01:01:06;;;;;;;7.33;4.00;;;21.50;62.40;;;24.20;43.00;101966.69;5072897;28;20177;-57
2023/07/08 01:03:46;;;;;;;4.27;3.90;;;21.40;62.40;;;24.15;42.89;101967.41;5073631;28;20189;-58
2023/07/08 01:06:13;;;;;;;4.63;3.80;;;21.40;62.30;;;24.13;42.91;101960.59;5073737;28;20192;-57
2023/07/08 01:08:40;;;;;;;4.60;3.83;;;21.40;62.50;;;24.12;42.76;101970.56;5073458;28;20329;-59
2023/07/08 01:11:08;;;;;;;5.30;4.50;;;21.30;62.50;;;24.10;43.12;101961.09;5073327;28;20270;-61
2023/07/08 01:13:43;;;;;;;3.83;3.53;;;21.40;62.80;;;24.08;43.26;101958.63;5073775;28;20189;-59
2023/07/08 01:16:12;;;;;;;4.73;3.63;;;21.30;62.80;;;24.07;43.13;101962.38;5073468;28;20286;-59
2023/07/08 01:18:41;;;;;;;4.17;3.50;;;21.30;62.90;;;24.04;43.23;101961.97;5073366;28;20185;-59
2023/07/08 01:21:31;;;;;;;4.57;3.63;;;21.30;62.90;;;23.95;43.67;101958.84;5073554;28;20204;-59
2023/07/08 01:24:04;;;;;;;4.80;3.90;;;21.30;63.20;;;23.95;43.47;101956.13;5073489;28;20642;-60
2023/07/08 01:26:34;;;;;;;7.40;4.23;;;21.20;63.20;;;23.94;43.45;101957.19;5073357;28;20220;-56
2023/07/08 01:29:03;;;;;;;3.87;3.57;;;21.20;63.40;;;23.92;43.52;101948.53;5072872;28;20681;-57
2023/07/08 01:31:30;;;;;;;4.47;3.70;;;21.10;63.40;;;23.89;43.36;101948.97;5073298;28;20638;-59
2023/07/08 01:33:57;;;;;;;4.17;3.77;;;21.10;63.60;;;23.87;43.86;101950.28;5072539;28;20197;-59
2023/07/08 01:36:29;;;;;;;5.13;3.70;;;21.10;63.80;;;23.85;43.83;101953.19;5073520;28;20286;-60
2023/07/08 01:38:56;;;;;;;4.70;4.20;;;21.10;63.70;;;23.80;43.81;101953.06;5073049;28;20205;-58
2023/07/08 01:41:24;;;;;;;4.43;4.03;;;21.00;63.80;;;23.78;43.87;101940.91;5073358;28;20199;-59
2023/07/08 01:43:51;;;;;;;5.80;4.07;;;21.00;63.90;;;23.73;44.17;101941.59;5073152;28;20467;-58
2023/07/08 01:46:24;;;;;;;4.10;3.70;;;21.00;64.20;;;23.69;44.27;101932.38;5073504;28;20185;-59
2023/07/08 01:48:56;;;;;;;4.80;3.80;;;21.00;64.40;;;23.67;44.43;101934.47;5071849;28;20241;-58
2023/07/08 01:51:26;;;;;;;5.67;3.77;;;20.90;64.20;;;23.64;44.26;101934.94;5063774;28;20232;-59
2023/07/08 01:53:53;;;;;;;8.03;4.93;;;20.90;64.50;;;23.62;44.20;101937.03;5053395;28;20193;-57
2023/07/08 01:56:20;;;;;;;5.07;4.33;;;20.90;64.50;;;23.58;44.07;101935.88;5053592;28;20759;-59
2023/07/08 01:58:48;;;;;;;6.17;4.23;;;20.80;64.30;;;23.53;44.39;101938.44;5053040;28;20194;-59
2023/07/08 02:01:15;;;;;;;5.63;5.03;;;20.80;64.80;;;23.50;44.41;101941.56;5053276;28;20546;-59
2023/07/08 02:03:42;;;;;;;16.63;14.50;;;20.70;64.90;;;23.48;44.55;101936.44;5053314;28;20194;-59
2023/07/08 02:06:11;;;;;;;10.80;7.80;;;20.70;65.00;;;23.47;44.74;101936.63;5053253;28;20692;-59
2023/07/08 02:08:38;;;;;;;5.97;5.13;;;20.70;65.30;;;23.46;44.50;101937.72;5053116;28;20553;-60
2023/07/08 02:11:05;;;;;;;7.33;4.43;;;20.70;65.20;;;23.45;44.57;101933.38;5053446;28;20225;-63
2023/07/08 02:13:32;;;;;;;6.57;4.20;;;20.70;65.20;;;23.42;44.65;101936.50;5053711;28;20581;-59
2023/07/08 02:16:00;;;;;;;4.90;4.40;;;20.60;65.10;;;23.39;44.50;101942.38;5053087;28;20224;-57
2023/07/08 02:18:27;;;;;;;5.60;4.57;;;20.60;65.10;;;23.36;44.70;101934.75;5052861;28;20194;-58
2023/07/08 02:20:55;;;;;;;5.30;4.30;;;20.60;65.60;;;23.34;44.78;101934.13;5056975;28;20291;-55
2023/07/08 02:23:22;;;;;;;5.30;3.87;;;20.60;65.50;;;23.33;44.85;101922.56;5075009;28;20194;-59
2023/07/08 02:25:53;;;;;;;5.33;4.10;;;20.50;65.70;;;23.33;44.68;101932.47;5077392;28;20200;-59
2023/07/08 02:28:21;;;;;;;4.60;3.87;;;20.50;65.70;;;23.32;44.77;101936.25;5076914;28;20173;-59
2023/07/08 02:30:48;;;;;;;4.50;4.10;;;20.50;65.80;;;23.29;45.14;101937.50;5076215;28;20329;-56
2023/07/08 02:33:17;;;;;;;6.87;4.40;;;20.50;65.90;;;23.29;45.12;101940.19;5076763;28;20192;-59
2023/07/08 02:35:45;;;;;;;5.07;3.87;;;20.50;66.10;;;23.31;45.20;101937.28;5076791;28;20213;-58
2023/07/08 02:38:12;;;;;;;4.13;3.83;;;20.50;66.40;;;23.34;45.29;101939.50;5077003;28;20225;-56
2023/07/08 02:40:39;;;;;;;5.23;3.90;;;20.50;66.40;;;23.38;44.83;101936.16;5076163;28;20300;-55
2023/07/08 02:43:06;;;;;;;5.13;4.27;;;20.50;66.30;;;23.39;45.02;101927.03;5075093;28;20268;-54
2023/07/08 02:45:33;;;;;;;5.43;4.30;;;20.60;66.20;;;23.42;44.97;101931.97;5076682;28;20208;-54
2023/07/08 02:48:00;;;;;;;5.50;4.20;;;20.60;66.20;;;23.44;44.89;101920.97;5076471;28;20197;-59
2023/07/08 02:50:28;;;;;;;7.53;4.43;;;20.60;65.90;;;23.43;44.80;101933.59;5074282;28;20216;-56
2023/07/08 02:52:55;;;;;;;4.43;3.70;;;20.70;65.90;;;23.44;44.86;101929.03;5057207;28;20584;-57
2023/07/08 02:55:22;;;;;;;6.07;4.07;;;20.70;65.90;;;23.42;44.86;101931.97;5056229;28;20316;-59
2023/07/08 02:57:49;;;;;;;4.50;4.07;;;20.70;66.70;;;23.42;44.72;101925.75;5056346;28;20236;-57
2023/07/08 03:00:16;;;;;;;4.80;4.40;;;20.70;65.70;;;23.41;44.60;101929.50;5056035;28;20765;-59
2023/07/08 03:02:45;;;;;;;5.77;3.90;;;20.60;65.40;;;23.37;44.63;101925.63;5056321;28;20220;-59
2023/07/08 03:05:12;;;;;;;4.60;4.20;;;20.60;65.50;;;23.32;44.88;101920.13;5055945;28;20221;-58
2023/07/08 03:07:40;;;;;;;4.80;4.40;;;20.60;65.90;;;23.30;44.88;101919.50;5056188;28;20198;-59
2023/07/08 03:10:08;;;;;;;5.93;4.00;;;20.50;66.20;;;23.28;45.24;101914.38;5055649;28;20245;-60
2023/07/08 03:12:35;;;;;;;5.67;4.50;;;20.50;66.40;;;23.27;45.17;101912.72;5056109;28;20228;-59
2023/07/08 03:15:03;;;;;;;4.60;4.20;;;20.50;66.40;;;23.25;45.18;101914.00;5055853;28;20276;-59
2023/07/08 03:17:30;;;;;;;6.13;3.87;;;20.50;66.10;;;23.22;45.05;101917.97;5062727;28;20247;-59
2023/07/08 03:19:57;;;;;;;4.63;4.07;;;20.50;66.10;;;23.20;45.14;101916.56;5075455;28;20209;-58
2023/07/08 03:22:24;;;;;;;5.40;4.17;;;20.50;67.00;;;23.18;45.47;101910.56;5075640;28;20199;-58
2023/07/08 03:24:52;;;;;;;6.40;4.73;;;20.50;66.60;;;23.18;45.33;101913.25;5075584;28;20272;-58
2023/07/08 03:27:20;;;;;;;4.40;3.80;;;20.40;66.50;;;23.19;45.36;101914.91;5075712;28;20229;-59
2023/07/08 03:29:47;;;;;;;5.97;3.80;;;20.40;66.70;;;23.19;45.51;101914.91;5075499;28;20299;-59
2023/07/08 03:32:14;;;;;;;5.37;3.90;;;20.50;66.80;;;23.19;45.45;101920.28;5075296;28;20272;-58
2023/07/08 03:34:41;;;;;;;4.73;4.20;;;20.50;66.80;;;23.22;45.22;101919.84;5075342;28;20326;-57
2023/07/08 03:37:09;;;;;;;4.80;4.33;;;20.50;66.60;;;23.23;45.20;101916.09;5075502;28;20240;-59
2023/07/08 03:39:36;;;;;;;5.13;4.53;;;20.40;66.50;;;23.23;45.32;101916.09;5075253;28;20213;-57
2023/07/08 03:42:06;;;;;;;5.63;4.37;;;20.50;66.70;;;23.22;45.22;101915.28;5075541;28;20272;-58
2023/07/08 03:44:33;;;;;;;4.57;4.17;;;20.50;66.80;;;23.21;45.31;101916.31;5075112;28;20193;-58
2023/07/08 03:47:00;;;;;;;4.50;4.20;;;20.50;66.50;;;23.19;45.29;101926.50;5075447;28;20216;-57
2023/07/08 03:49:27;;;;;;;4.90;4.43;;;20.40;66.40;;;23.14;45.33;101929.03;5057119;28;20229;-58
2023/07/08 03:51:54;;;;;;;5.03;4.53;;;20.40;66.50;;;23.07;45.05;101924.78;5056572;28;20194;-58
2023/07/08 03:54:24;;;;;;;5.20;4.43;;;20.30;66.20;;;22.99;45.05;101919.75;5055543;28;20208;-58
2023/07/08 03:56:51;;;;;;;6.90;4.33;;;20.30;66.70;;;22.96;45.46;101925.56;5055284;28;20275;-58
2023/07/08 03:59:19;;;;;;;6.40;4.60;;;20.20;67.00;;;22.90;45.95;101919.25;5054078;28;20206;-58
2023/07/08 04:01:46;;;;;;;7.77;5.07;;;20.10;67.10;;;22.85;46.05;101913.72;5054784;28;20201;-57
2023/07/08 04:04:15;;;;;;;5.67;4.87;;;20.10;67.50;;;22.81;46.24;101912.53;5054872;28;20186;-58
2023/07/08 04:06:43;;;;;;;5.40;4.90;;;20.10;67.70;;;22.77;46.17;101912.16;5055248;28;20190;-57
2023/07/08 04:09:10;;;;;;;4.93;4.53;;;20.00;67.70;;;22.74;45.90;101911.81;5054823;28;20726;-58
2023/07/08 04:11:37;;;;;;;4.40;4.00;;;20.00;67.80;;;22.72;46.28;101914.72;5054727;28;20204;-59
2023/07/08 04:14:04;;;;;;;5.70;4.37;;;19.90;68.00;;;22.73;46.60;101916.34;5063152;28;20197;-58
2023/07/08 04:16:47;;;;;;;5.07;4.10;;;19.90;68.30;;;22.72;46.72;101919.28;5075056;28;20299;-57
2023/07/08 04:19:15;;;;;;;5.40;4.40;;;19.90;68.50;;;22.77;46.68;101912.16;5074634;28;20638;-57
2023/07/08 04:21:44;;;;;;;5.60;4.20;;;20.00;68.50;;;22.78;46.38;101913.81;5074862;28;20260;-57
2023/07/08 04:24:14;;;;;;;7.43;4.90;;;20.00;68.30;;;22.77;46.34;101912.16;5074791;28;20275;-57
2023/07/08 04:26:42;;;;;;;6.33;5.07;;;20.00;69.10;;;22.75;46.31;101903.53;5074704;28;20590;-57
2023/07/08 04:29:14;;;;;;;5.47;4.10;;;20.00;68.40;;;22.74;46.23;101901.91;5074120;28;20689;-58
2023/07/08 04:31:43;;;;;;;5.63;4.43;;;20.00;68.40;;;22.76;46.08;101904.34;5074592;28;20286;-59
2023/07/08 04:34:10;;;;;;;5.03;4.53;;;19.90;68.50;;;22.77;46.54;101914.84;5059239;28;20324;-57
2023/07/08 04:36:38;;;;;;;4.43;4.03;;;20.00;68.60;;;22.79;46.45;101910.09;5054604;28;20739;-59
2023/07/08 04:39:07;;;;;;;4.90;3.87;;;19.90;68.60;;;22.82;46.29;101911.50;5054047;28;20292;-58
2023/07/08 04:41:40;;;;;;;4.43;4.03;;;20.00;68.70;;;22.89;46.34;101920.31;5054604;28;20650;-61
2023/07/08 04:44:07;;;;;;;4.10;3.70;;;20.00;68.60;;;22.94;46.30;101923.09;5053644;28;20325;-58
2023/07/08 04:46:40;;;;;;;5.70;4.10;;;20.10;68.70;;;23.01;46.10;101920.34;5053599;28;20276;-57
2023/07/08 04:49:09;;;;;;;4.27;3.90;;;20.10;68.60;;;23.04;45.86;101912.63;5053724;28;20214;-57
2023/07/08 04:51:37;;;;;;;6.23;5.63;;;20.20;68.30;;;23.08;45.52;101907.66;5055498;28;20189;-58
2023/07/08 04:54:04;;;;;;;4.37;3.87;;;20.20;68.20;;;23.11;45.86;101921.44;5053885;28;20193;-57
2023/07/08 04:56:38;;;;;;;5.13;3.53;;;20.20;68.70;;;23.11;45.76;101907.16;5054577;28;20574;-60
2023/07/08 04:59:07;;;;;;;4.33;3.67;;;20.30;68.20;;;23.14;45.77;101912.09;5053480;28;20682;-59
2023/07/08 05:01:35;;;;;;;4.77;3.83;;;20.30;68.70;;;23.17;45.88;101900.91;5053836;28;20190;-57
2023/07/08 05:04:05;;;;;;;3.80;3.50;;;20.40;67.90;;;23.21;45.43;101907.44;5053656;28;20662;-57
2023/07/08 05:06:34;;;;;;;3.40;3.10;;;20.40;67.80;;;23.25;45.58;101904.06;5053713;28;20650;-57
2023/07/08 05:09:02;;;;;;;4.20;3.80;;;20.40;67.60;;;23.29;45.33;101909.81;5053644;28;20302;-59
2023/07/08 05:11:30;;;;;;;3.27;3.00;;;20.50;67.50;;;23.33;45.40;101905.59;5072052;28;20637;-56
2023/07/08 05:13:58;;;;;;;5.73;3.83;;;20.50;67.30;;;23.38;45.37;101908.47;5073602;28;20208;-55
2023/07/08 05:16:25;;;;;;;3.73;3.43;;;20.60;67.30;;;23.42;45.24;101909.63;5073505;28;20205;-56
2023/07/08 05:18:52;;;;;;;3.40;3.10;;;20.60;67.20;;;23.46;45.10;101910.81;5061019;28;20267;-56
2023/07/08 05:21:20;;;;;;;5.73;3.53;;;20.60;67.10;;;23.50;44.91;101912.00;5052808;28;20591;-55
2023/07/08 05:23:49;;;;;;;6.10;3.70;;;20.70;67.00;;;23.51;44.90;101910.94;5053422;28;20228;-57
2023/07/08 05:26:17;;;;;;;6.00;4.10;;;20.70;66.90;;;23.55;44.77;101902.19;5053498;28;20186;-58
2023/07/08 05:28:44;;;;;;;4.17;3.70;;;20.70;66.70;;;23.58;44.83;101906.28;5052856;28;20225;-58
2023/07/08 05:31:11;;;;;;;4.07;3.60;;;20.80;66.80;;;23.64;44.82;101902.66;5053802;28;20194;-58
2023/07/08 05:33:38;;;;;;;4.17;3.77;;;20.80;66.70;;;23.66;44.79;101905.94;5053196;28;20531;-55
2023/07/08 05:36:05;;;;;;;4.70;3.40;;;20.80;66.40;;;23.71;44.78;101908.75;5053650;28;20297;-58
2023/07/08 05:38:33;;;;;;;4.10;3.20;;;20.90;66.50;;;23.77;44.62;101913.19;5052726;28;20263;-58
2023/07/08 05:41:01;;;;;;;7.53;3.67;;;20.90;66.50;;;23.83;44.53;101906.91;5052550;28;20280;-56
2023/07/08 05:43:29;;;;;;;4.30;3.47;;;21.00;66.40;;;23.87;44.35;101902.69;5052727;28;20596;-58
2023/07/08 05:46:00;;;;;;;4.03;3.20;;;21.00;66.20;;;23.94;44.17;101906.06;5051795;28;20293;-58
2023/07/08 05:48:37;;;;;;;4.53;3.80;;;21.10;66.20;;;24.00;43.97;101902.47;5052721;28;20551;-58
2023/07/08 05:51:05;;;;;;;4.90;3.40;;;21.20;66.10;;;24.05;44.20;101907.97;5054425;28;20221;-57
2023/07/08 05:53:32;;;;;;;4.50;3.47;;;21.20;65.90;;;24.12;44.00;101899.78;5053090;28;20268;-58
2023/07/08 05:55:59;;;;;;;4.03;3.63;;;21.30;65.90;;;24.19;43.99;101905.88;5052976;28;20190;-59
2023/07/08 05:58:27;;;;;;;5.00;2.83;;;21.30;65.70;;;24.26;44.03;101905.72;5056613;28;20235;-60
2023/07/08 06:00:57;;;;;;;4.27;3.73;;;21.40;65.80;;;24.30;44.04;101901.50;5056972;28;20217;-57
2023/07/08 06:03:26;;;;;;;4.53;3.43;;;21.40;65.50;;;24.34;44.09;101903.50;5057833;28;20206;-56
2023/07/08 06:05:53;;;;;;;4.70;3.30;;;21.50;65.50;;;24.40;43.92;101896.34;5060973;28;20475;-58
2023/07/08 06:08:20;;;;;;;3.90;2.83;;;21.60;65.40;;;24.43;43.72;101902.09;5077420;28;20276;-57
2023/07/08 06:10:47;;;;;;;3.43;2.90;;;21.60;65.20;;;24.51;43.75;101901.69;5076857;28;20212;-57
2023/07/08 06:13:14;;;;;;;3.87;3.47;;;21.70;65.20;;;24.60;43.40;101907.53;5077047;28;20573;-59
2023/07/08 06:15:43;;;;;;;5.30;3.57;;;21.70;65.10;;;24.68;43.00;101905.28;5076471;28;20193;-58
2023/07/08 06:18:10;;;;;;;3.27;2.97;;;21.80;65.00;;;24.76;43.02;101907.66;5076967;28;20252;-58
2023/07/08 06:20:37;;;;;;;3.13;2.80;;;21.90;65.00;;;24.88;43.09;101904.91;5076414;28;20263;-56
2023/07/08 06:23:04;;;;;;;6.17;3.53;;;22.00;65.10;;;24.98;43.36;101909.66;5076706;28;20213;-58
2023/07/08 06:25:32;;;;;;;3.93;3.07;;;22.00;64.90;;;25.08;42.46;101910.66;5077039;28;20197;-54
2023/07/08 06:27:59;;;;;;;3.87;3.10;;;22.10;64.70;;;25.12;43.06;101901.06;5076750;28;20264;-58
2023/07/08 06:30:26;;;;;;;3.57;3.10;;;22.20;64.60;;;25.20;43.02;101897.94;5076474;28;20304;-59
2023/07/08 06:32:54;;;;;;;4.27;3.87;;;22.30;64.60;;;25.26;42.90;101896.16;5076552;28;20661;-58
2023/07/08 06:35:21;;;;;;;3.37;3.07;;;22.30;64.30;;;25.31;42.40;101893.56;5076482;28;20662;-56
2023/07/08 06:37:48;;;;;;;3.20;3.00;;;22.40;64.20;;;25.34;42.28;101896.56;5075436;28;20304;-56
2023/07/08 06:40:17;;;;;;;3.70;3.40;;;22.50;64.20;;;25.43;42.33;101907.78;5075960;28;20227;-57
2023/07/08 06:42:45;;;;;;;4.77;3.00;;;22.60;64.10;;;25.53;42.66;101906.09;5076738;28;20282;-59
2023/07/08 06:45:12;;;;;;;5.10;4.00;;;22.60;63.90;;;25.60;42.47;101897.03;5075919;28;20243;-58
2023/07/08 06:47:39;;;;;;;9.93;8.97;;;22.70;63.80;;;25.66;41.79;101894.16;5076137;28;20262;-58
2023/07/08 06:50:09;;;;;;;4.27;3.87;;;22.80;63.20;;;25.73;41.47;101886.72;5075726;28;20220;-58
2023/07/08 06:52:36;;;;;;;4.33;3.57;;;22.90;63.00;;;25.83;42.08;101888.75;5055941;28;20228;-58
2023/07/08 06:55:09;;;;;;;3.60;3.30;;;23.00;63.20;;;25.90;41.37;101882.13;5056218;28;20194;-59
2023/07/08 06:57:39;;;;;;;4.77;3.23;;;23.00;63.00;;;26.00;41.78;101889.56;5055867;28;20610;-58
2023/07/08 07:00:09;;;;;;;3.70;3.40;;;23.10;62.80;;;26.10;41.56;101889.72;5055850;28;20300;-57
2023/07/08 07:02:37;;;;;;;3.63;3.33;;;23.20;62.70;;;26.16;41.11;101886.03;5064120;28;20551;-55
2023/07/08 07:05:05;;;;;;;4.03;3.37;;;23.30;62.50;;;26.22;41.80;101890.41;5075822;28;20197;-57
2023/07/08 07:07:34;;;;;;;4.70;3.10;;;23.40;62.60;;;26.31;40.81;101888.94;5075639;28;20538;-59
2023/07/08 07:10:02;;;;;;;10.07;3.50;;;23.50;62.10;;;26.42;41.18;101892.56;5074683;28;20232;-58
2023/07/08 07:12:30;;;;;;;4.47;2.93;;;23.60;61.90;;;26.46;40.70;101889.09;5075546;28;20193;-57
2023/07/08 07:14:57;;;;;;;3.97;3.67;;;23.60;61.70;;;26.54;40.94;101885.97;5075357;28;20677;-57
2023/07/08 07:17:26;;;;;;;4.73;3.20;;;23.70;61.40;;;26.64;40.89;101888.81;5075443;28;20232;-56
2023/07/08 07:19:53;;;;;;;4.67;3.50;;;23.80;61.40;;;26.76;40.28;101892.22;5075052;28;20239;-58
2023/07/08 07:22:21;;;;;;;4.70;3.87;;;23.90;61.20;;;26.89;40.32;101888.28;5075605;28;20193;-59
2023/07/08 07:24:50;;;;;;;3.90;3.47;;;24.00;61.10;;;27.01;39.71;101886.25;5075841;28;20606;-58
2023/07/08 07:27:17;;;;;;;4.03;3.23;;;24.10;60.60;;;27.11;39.39;101883.66;5075359;28;20272;-57
2023/07/08 07:29:47;;;;;;;3.70;3.40;;;24.20;60.30;;;27.23;39.41;101880.78;5074884;28;20303;-58
2023/07/08 07:32:16;;;;;;;4.03;3.17;;;24.30;60.10;;;27.29;39.62;101875.16;5075574;28;20193;-58
2023/07/08 07:34:47;;;;;;;4.20;3.80;;;24.40;59.60;;;27.40;38.93;101881.50;5075573;28;20289;-60
2023/07/08 07:37:17;;;;;;;4.63;4.23;;;24.50;59.60;;;27.49;38.95;101874.53;5075351;28;20276;-58
2023/07/08 07:39:44;;;;;;;4.00;3.63;;;24.60;59.20;;;27.58;39.31;101872.97;5074671;28;20256;-59
2023/07/08 07:42:15;;;;;;;4.07;3.30;;;24.70;59.40;;;27.69;38.88;101872.00;5075239;28;20256;-55
2023/07/08 07:44:43;;;;;;;3.90;3.50;;;24.80;59.10;;;27.79;38.60;101869.34;5074881;28;20540;-58
2023/07/08 07:47:11;;;;;;;4.00;3.57;;;24.90;58.80;;;27.88;38.62;101865.09;5074971;28;20193;-59
2023/07/08 07:49:38;;;;;;;3.30;2.97;;;25.00;58.60;;;27.98;38.51;101872.44;5074671;28;20209;-59
2023/07/08 07:52:06;;;;;;;3.67;3.37;;;25.10;58.40;;;28.02;38.68;101863.56;5059669;28;20274;-57
2023/07/08 07:54:33;;;;;;;5.13;4.63;;;25.20;58.20;;;28.11;38.29;101867.41;5055215;28;20222;-60
2023/07/08 07:57:00;;;;;;;4.10;3.70;;;25.20;58.00;;;28.18;37.76;101873.41;5055204;28;20245;-60
2023/07/08 07:59:29;;;;;;;4.87;3.37;;;25.40;57.50;;;28.28;37.67;101872.63;5061197;28;20218;-60
2023/07/08 08:01:56;;;;;;;3.43;3.13;;;25.40;57.00;;;28.35;37.47;101872.38;5055097;28;20285;-58
2023/07/08 08:04:23;;;;;;;3.83;3.53;;;25.50;57.10;;;28.43;37.31;101869.16;5054740;28;20216;-59
2023/07/08 08:06:50;;;;;;;3.97;3.40;;;25.60;56.60;;;28.51;37.43;101865.94;5054684;28;20186;-59
2023/07/08 08:09:17;;;;;;;3.83;3.50;;;25.70;56.70;;;28.59;37.15;101860.00;5054675;28;20238;-60
2023/07/08 08:11:44;;;;;;;4.23;3.93;;;25.70;56.60;;;28.62;37.35;101870.34;5054415;28;20244;-59
2023/07/08 08:14:11;;;;;;;5.63;4.43;;;25.80;56.50;;;28.63;37.51;101871.97;5054400;28;20224;-58
2023/07/08 08:16:40;;;;;;;3.20;2.97;;;25.90;56.70;;;28.77;37.42;101864.94;5054166;28;20189;-60
2023/07/08 08:19:06;;;;;;;5.67;3.67;;;25.90;56.70;;;29.28;36.58;101866.69;5054199;28;20209;-57
2023/07/08 08:21:35;;;;;;;4.07;3.23;;;26.10;56.90;;;30.40;34.93;101870.03;5053058;28;20750;-58
2023/07/08 08:24:02;;;;;;;3.30;3.00;;;26.40;56.60;;;31.82;33.11;101874.16;5054483;28;20267;-58
2023/07/08 08:26:29;;;;;;;4.47;3.63;;;26.90;56.20;;;33.31;31.41;101865.34;5054338;28;20190;-57
2023/07/08 08:28:57;;;;;;;3.37;3.07;;;27.60;55.10;;;34.64;29.34;101871.53;5053580;28;20265;-59
2023/07/08 08:31:24;;;;;;;3.53;3.23;;;28.40;53.30;;;35.72;27.27;101862.03;5053384;28;20222;-59
2023/07/08 08:33:53;;;;;;;4.23;3.20;;;29.30;50.70;;;36.85;26.55;101867.47;5053995;28;20562;-59
2023/07/08 08:36:20;;;;;;;6.95;3.60;;;30.20;49.20;;;37.97;24.25;101865.28;5053648;28;20281;-59
2023/07/08 08:38:48;;;;;;;4.03;3.70;;;31.00;45.50;;;38.85;23.57;101867.97;5053577;28;20213;-58
2023/07/08 08:41:18;;;;;;;4.93;4.25;;;31.80;44.00;;;39.85;22.62;101866.44;5054055;28;20281;-59
2023/07/08 08:43:48;;;;;;;5.28;3.60;;;32.60;41.90;;;40.72;21.20;101861.28;5053093;28;20265;-60
2023/07/08 08:46:29;;;;;;;3.92;3.45;;;33.40;39.60;;;41.27;19.87;101863.25;5054082;28;20702;-59
2023/07/08 08:49:07;;;;;;;4.25;3.90;;;34.10;36.80;;;41.60;20.05;101860.13;5053216;28;20216;-58
2023/07/08 08:51:34;;;;;;;4.45;3.75;;;34.80;35.90;;;41.81;19.76;101857.91;5054740;28;20251;-57
2023/07/08 08:54:01;;;;;;;3.85;3.55;;;35.30;35.10;;;42.20;19.37;101854.09;5053661;28;20255;-57
2023/07/08 08:56:37;;;;;;;3.13;2.92;;;35.70;33.40;;;42.66;18.87;101846.00;5072222;28;20219;-58
2023/07/08 08:59:13;;;;;;;4.10;3.28;;;36.00;32.80;;;43.11;18.94;101843.31;5070393;28;20331;-59
2023/07/08 09:01:40;;;;;;;5.97;3.75;;;36.50;32.60;;;43.57;18.48;101847.75;5053513;28;20277;-60
2023/07/08 09:04:16;;;;;;;3.60;3.17;;;36.90;31.80;;;44.07;17.61;101845.78;5053465;28;20239;-58
2023/07/08 09:06:44;;;;;;;3.92;3.60;;;37.30;30.70;;;44.66;17.30;101837.44;5053609;28;20217;-56
2023/07/08 09:09:22;;;;;;;3.58;3.28;;;37.60;30.90;;;45.22;17.38;101848.38;5052789;28;20554;-58
2023/07/08 09:11:57;;;;;;;3.85;3.55;;;38.10;29.80;;;45.48;17.05;101839.09;5053387;28;20204;-58
2023/07/08 09:14:27;;;;;;;3.90;3.60;;;38.40;29.00;;;45.67;16.18;101838.84;5053615;28;20197;-59
2023/07/08 09:17:09;;;;;;;12.80;11.70;;;38.70;28.40;;;45.97;16.38;101839.47;5052983;28;20301;-58
2023/07/08 09:19:43;;;;;;;4.03;3.65;;;39.00;28.10;;;46.37;15.64;101848.84;5053083;28;20213;-58
2023/07/08 09:22:19;;;;;;;3.75;3.10;;;39.10;27.50;;;46.58;15.37;101837.78;5051792;28;20204;-57
2023/07/08 09:24:53;;;;;;;3.47;3.28;;;39.40;27.70;;;46.92;15.48;101833.50;5053583;28;20265;-59
2023/07/08 09:27:20;;;;;;;3.45;3.15;;;39.60;27.60;;;47.20;15.33;101839.16;5052979;28;20189;-58
2023/07/08 09:29:47;;;;;;;5.68;3.35;;;39.80;27.60;;;47.51;15.16;101827.22;5053086;28;20573;-59
2023/07/08 09:32:20;;;;;;;3.60;3.30;;;40.10;27.40;;;47.60;14.64;101835.16;5052670;28;20201;-58
2023/07/08 09:34:51;;;;;;;3.90;3.25;;;40.30;26.30;;;47.76;14.83;101829.16;5053433;28;20178;-59
2023/07/08 09:37:26;;;;;;;3.50;3.20;;;40.50;26.30;;;47.70;14.42;101833.56;5052743;28;20210;-59
2023/07/08 09:39:56;;;;;;;4.20;3.13;;;40.60;25.90;;;47.90;14.70;101826.38;5052302;28;20213;-59
2023/07/08 09:42:31;;;;;;;4.50;4.13;;;40.80;26.20;;;48.18;14.00;101834.69;5053001;28;20289;-58
2023/07/08 09:45:01;;;;;;;10.40;9.50;;;40.90;25.10;;;48.26;14.10;101838.25;5052421;28;20333;-58
2023/07/08 09:47:37;;;;;;;4.55;4.10;;;41.00;25.10;;;48.49;13.94;101827.38;5052630;28;20247;-60
2023/07/08 09:50:18;;;;;;;3.70;3.40;;;41.10;25.70;;;48.82;13.38;101832.38;5052191;28;20213;-57
2023/07/08 09:52:47;;;;;;;4.28;3.50;;;41.30;25.20;;;49.12;13.91;101832.56;5072032;28;20201;-58
2023/07/08 09:55:14;;;;;;;4.07;3.03;;;41.40;25.00;;;49.49;13.65;101826.28;5072882;28;20636;-56
2023/07/08 09:57:45;;;;;;;3.45;3.08;;;41.50;24.80;;;49.74;12.41;101829.63;5072359;28;20283;-56
2023/07/08 10:00:16;;;;;;;4.30;3.95;;;41.60;24.40;;;49.71;12.15;101827.69;5059713;28;20217;-58
2023/07/08 10:02:49;;;;;;;5.47;3.17;;;41.80;24.10;;;49.74;12.48;101832.44;5052491;28;20193;-57
2023/07/08 10:05:23;;;;;;;3.20;3.00;;;42.00;24.10;;;50.01;12.28;101833.38;5052640;28;20251;-59
2023/07/08 10:07:56;;;;;;;3.50;3.20;;;42.20;23.70;;;50.42;12.66;101832.47;5052092;28;20299;-60
2023/07/08 10:10:32;;;;;;;4.45;3.70;;;42.30;23.50;;;50.65;12.02;101829.75;5051714;28;20636;-57
2023/07/08 10:13:06;;;;;;;7.22;3.60;;;42.50;23.30;;;50.76;11.91;101828.38;5051905;28;20174;-59
2023/07/08 10:15:41;;;;;;;3.50;3.13;;;42.70;23.00;;;51.00;11.88;101825.66;5052207;28;20319;-59
2023/07/08 10:18:15;;;;;;;4.28;3.97;;;42.80;23.40;;;50.99;10.94;101824.84;5051821;28;20201;-58
2023/07/08 10:20:57;;;;;;;4.32;3.92;;;42.90;22.20;;;50.90;11.51;101824.59;5051763;28;20674;-58